createdAt,value
2023-04-08T00:04:11.036Z,14.87
2023-04-08T00:09:32.162Z,14.17
2023-04-08T00:14:54.035Z,12.87
2023-04-08T00:20:15.716Z,11.97
2023-04-08T00:25:37.123Z,12.67
2023-04-08T00:30:58.767Z,12.07
2023-04-08T00:36:20.554Z,11.50
2023-04-08T00:41:42.321Z,12.27
2023-04-08T00:47:04.842Z,12.33
2023-04-08T00:52:26.707Z,12.80
2023-04-08T00:57:48.666Z,11.60
2023-04-08T01:03:24.678Z,11.57
2023-04-08T01:08:51.920Z,12.07
2023-04-08T01:14:18.072Z,11.33
2023-04-08T01:19:45.006Z,11.57
2023-04-08T01:25:11.196Z,11.43
2023-04-08T01:30:34.359Z,11.87
2023-04-08T01:35:57.824Z,10.43
2023-04-08T01:41:21.547Z,9.33
2023-04-08T01:46:44.205Z,9.47
2023-04-08T01:52:06.858Z,9.57
2023-04-08T01:57:31.990Z,9.43
2023-04-08T02:02:55.631Z,8.60
2023-04-08T02:08:16.955Z,6.87
2023-04-08T02:13:38.620Z,6.53
2023-04-08T02:19:20.461Z,6.50
2023-04-08T02:24:43.043Z,5.93
2023-04-08T02:30:07.030Z,5.93
2023-04-08T02:35:31.635Z,6.33
2023-04-08T02:40:53.377Z,5.40
2023-04-08T02:46:15.827Z,5.83
2023-04-08T02:51:37.147Z,5.27
2023-04-08T02:56:58.808Z,5.97
2023-04-08T03:02:20.174Z,5.93
2023-04-08T03:07:41.357Z,6.47
2023-04-08T03:13:03.111Z,6.33
2023-04-08T03:18:24.576Z,6.40
2023-04-08T03:23:46.225Z,6.50
2023-04-08T03:29:07.802Z,6.50
2023-04-08T03:34:29.484Z,6.03
2023-04-08T03:39:51.162Z,5.30
2023-04-08T03:45:12.366Z,5.70
2023-04-08T03:50:33.775Z,5.00
2023-04-08T03:55:56.211Z,4.03
2023-04-08T04:01:17.559Z,3.87
2023-04-08T04:06:39.068Z,4.07
2023-04-08T04:12:00.868Z,4.53
2023-04-08T04:17:22.232Z,4.07
2023-04-08T04:22:43.671Z,4.10
2023-04-08T04:28:05.333Z,4.07
2023-04-08T04:33:27.317Z,3.53
2023-04-08T04:38:50.769Z,3.50
2023-04-08T04:44:12.177Z,4.07
2023-04-08T04:49:33.645Z,3.70
2023-04-08T04:54:55.237Z,3.53
2023-04-08T05:00:17.240Z,4.10
2023-04-08T05:05:39.124Z,3.70
2023-04-08T05:11:02.330Z,3.90
2023-04-08T05:16:23.581Z,3.80
2023-04-08T05:21:45.362Z,3.73
2023-04-08T05:27:07.202Z,3.70
2023-04-08T05:32:29.930Z,3.20
2023-04-08T05:37:51.421Z,3.67
2023-04-08T05:43:12.958Z,3.43
2023-04-08T05:48:34.623Z,3.00
2023-04-08T05:53:56.197Z,3.10
2023-04-08T05:59:17.694Z,2.80
2023-04-08T06:04:39.428Z,2.67
2023-04-08T06:10:00.914Z,2.87
2023-04-08T06:15:22.617Z,2.80
2023-04-08T06:20:44.253Z,2.33
2023-04-08T06:26:05.792Z,2.77
2023-04-08T06:31:27.139Z,3.67
2023-04-08T06:36:48.625Z,2.67
2023-04-08T06:42:10.026Z,2.37
2023-04-08T06:47:48.624Z,2.40
2023-04-08T06:53:10.208Z,1.97
2023-04-08T06:58:31.927Z,2.17
2023-04-08T07:03:53.592Z,1.90
2023-04-08T07:09:15.006Z,2.57
2023-04-08T07:14:36.461Z,2.17
2023-04-08T07:19:57.912Z,2.50
2023-04-08T07:25:19.413Z,2.93
2023-04-08T07:30:40.888Z,3.27
2023-04-08T07:36:02.494Z,3.90
2023-04-08T07:41:23.834Z,4.50
2023-04-08T07:46:51.830Z,4.80
2023-04-08T07:52:13.440Z,4.90
2023-04-08T07:57:34.975Z,5.47
2023-04-08T08:02:57.117Z,5.23
2023-04-08T08:08:18.748Z,6.37
2023-04-08T08:13:39.913Z,6.57
2023-04-08T08:19:01.654Z,7.00
2023-04-08T08:24:23.228Z,7.63
2023-04-08T08:29:44.799Z,7.63
2023-04-08T08:35:06.651Z,9.60
2023-04-08T08:40:27.951Z,10.53
2023-04-08T08:45:49.499Z,12.13
2023-04-08T08:51:12.009Z,11.63
2023-04-08T08:56:36.415Z,13.43
2023-04-08T09:01:58.168Z,14.87
2023-04-08T09:07:24.201Z,17.70
2023-04-08T09:12:56.429Z,18.17
2023-04-08T09:18:24.289Z,19.30
2023-04-08T09:23:51.741Z,20.63
2023-04-08T09:29:25.624Z,18.80
2023-04-08T09:34:47.771Z,20.57
2023-04-08T09:40:09.869Z,20.30
2023-04-08T09:45:33.604Z,21.53
2023-04-08T09:51:00.051Z,21.13
2023-04-08T09:56:21.919Z,21.30
2023-04-08T10:01:52.704Z,19.57
2023-04-08T10:07:15.808Z,19.67
2023-04-08T10:12:37.710Z,18.77
2023-04-08T10:18:19.467Z,17.63
2023-04-08T10:23:59.187Z,15.50
2023-04-08T10:29:38.823Z,15.17
2023-04-08T10:35:00.494Z,12.03
2023-04-08T10:40:22.162Z,11.60
2023-04-08T10:45:47.939Z,11.10
2023-04-08T10:51:10.516Z,10.43
2023-04-08T10:56:32.104Z,9.47
2023-04-08T11:01:53.650Z,8.50
2023-04-08T11:07:16.259Z,7.07
2023-04-08T11:12:38.843Z,7.33
2023-04-08T11:18:02.741Z,8.03
2023-04-08T11:23:26.611Z,8.57
2023-04-08T11:28:52.108Z,7.30
2023-04-08T11:34:22.004Z,8.63
2023-04-08T11:39:46.970Z,8.50
2023-04-08T11:45:12.517Z,8.83
2023-04-08T11:50:34.026Z,8.40
2023-04-08T11:55:56.098Z,9.50
2023-04-08T12:01:17.755Z,7.83
2023-04-08T12:06:39.195Z,9.60
2023-04-08T12:12:01.422Z,8.90
2023-04-08T12:17:22.801Z,9.20
2023-04-08T12:22:44.407Z,9.63
2023-04-08T12:28:05.934Z,11.10
2023-04-08T12:33:27.506Z,9.27
2023-04-08T12:38:49.105Z,9.23
2023-04-08T12:44:11.001Z,10.53
2023-04-08T12:49:39.662Z,10.37
2023-04-08T12:55:10.749Z,10.40
2023-04-08T13:00:32.520Z,11.17
2023-04-08T13:05:54.030Z,10.90
2023-04-08T13:11:15.739Z,12.50
2023-04-08T13:16:37.377Z,12.80
2023-04-08T13:21:58.600Z,14.57
2023-04-08T13:27:19.829Z,14.80
2023-04-08T13:32:41.320Z,16.10
2023-04-08T13:38:02.590Z,17.03
2023-04-08T13:43:23.912Z,17.33
2023-04-08T13:48:46.494Z,17.93
2023-04-08T13:54:08.220Z,16.80
2023-04-08T13:59:29.439Z,18.37
2023-04-08T14:04:52.441Z,16.97
2023-04-08T14:10:15.865Z,17.60
2023-04-08T14:15:37.296Z,16.50
2023-04-08T14:20:58.703Z,17.47
2023-04-08T14:26:20.233Z,17.53
2023-04-08T14:31:41.662Z,18.03
2023-04-08T14:37:03.288Z,18.10
2023-04-08T14:42:24.984Z,17.53
2023-04-08T14:47:47.715Z,17.30
2023-04-08T14:53:09.096Z,17.80
2023-04-08T14:58:30.661Z,18.77
2023-04-08T15:03:51.977Z,17.67
2023-04-08T15:09:13.388Z,18.63
2023-04-08T15:14:34.999Z,17.70
2023-04-08T15:19:56.732Z,19.43
2023-04-08T15:25:18.565Z,18.87
2023-04-08T15:30:39.936Z,19.73
2023-04-08T15:36:04.166Z,19.67
2023-04-08T15:41:26.363Z,18.30
2023-04-08T15:46:47.909Z,20.00
2023-04-08T15:52:09.594Z,18.27
2023-04-08T15:57:32.348Z,20.47
2023-04-08T16:02:53.987Z,21.47
2023-04-08T16:08:16.366Z,21.97
2023-04-08T16:13:39.293Z,20.87
2023-04-08T16:19:02.345Z,20.77
2023-04-08T16:24:23.696Z,19.63
2023-04-08T16:29:46.207Z,20.80
2023-04-08T16:35:07.855Z,20.80
2023-04-08T16:40:33.158Z,21.43
2023-04-08T16:45:54.595Z,22.40
2023-04-08T16:51:17.692Z,19.40
2023-04-08T16:56:44.341Z,18.93
2023-04-08T17:02:05.650Z,20.00
2023-04-08T17:07:28.476Z,20.47
2023-04-08T17:12:49.911Z,23.40
2023-04-08T17:18:11.462Z,19.00
2023-04-08T17:23:33.299Z,18.87
2023-04-08T17:28:54.718Z,19.77
2023-04-08T17:34:16.438Z,19.03
2023-04-08T17:39:40.918Z,19.97
2023-04-08T17:45:02.883Z,19.70
2023-04-08T17:50:24.858Z,20.03
2023-04-08T17:55:46.295Z,17.43
2023-04-08T18:01:07.645Z,17.20
2023-04-08T18:06:29.712Z,16.67
2023-04-08T18:11:51.811Z,16.73
2023-04-08T18:17:14.576Z,16.50
2023-04-08T18:22:36.390Z,14.97
2023-04-08T18:27:58.377Z,15.70
2023-04-08T18:33:20.183Z,15.80
2023-04-08T18:38:42.040Z,15.23
2023-04-08T18:44:04.254Z,15.30
2023-04-08T18:49:25.554Z,15.30
2023-04-08T18:54:48.999Z,14.77
2023-04-08T19:00:11.088Z,14.60
2023-04-08T19:05:33.104Z,15.77
2023-04-08T19:10:54.578Z,15.33
2023-04-08T19:16:16.091Z,16.40
2023-04-08T19:21:37.981Z,15.97
2023-04-08T19:26:59.158Z,16.90
2023-04-08T19:32:20.571Z,16.83
2023-04-08T19:37:42.124Z,17.10
2023-04-08T19:43:03.645Z,17.53
2023-04-08T19:48:26.165Z,17.97
2023-04-08T19:53:47.617Z,18.77
2023-04-08T19:59:08.783Z,19.00
2023-04-08T20:04:31.128Z,18.33
2023-04-08T20:09:53.010Z,18.60
2023-04-08T20:15:24.073Z,19.70
2023-04-08T20:20:49.000Z,18.93
2023-04-08T20:26:11.684Z,19.43
2023-04-08T20:31:33.311Z,19.03
2023-04-08T20:36:54.843Z,20.20
2023-04-08T20:42:16.363Z,19.90
2023-04-08T20:47:38.913Z,19.13
2023-04-08T20:53:00.806Z,20.00
2023-04-08T20:58:22.407Z,19.23
2023-04-08T21:03:44.612Z,19.93
2023-04-08T21:09:06.410Z,19.83
2023-04-08T21:14:27.939Z,20.30
2023-04-08T21:19:49.176Z,20.90
2023-04-08T21:25:11.035Z,20.83
2023-04-08T21:30:33.869Z,20.13
2023-04-08T21:35:57.106Z,20.50
2023-04-08T21:41:18.271Z,20.43
2023-04-08T21:46:39.839Z,19.80
2023-04-08T21:52:03.277Z,21.20
2023-04-08T21:57:24.828Z,19.50
2023-04-08T22:02:46.382Z,20.03
2023-04-08T22:08:08.218Z,19.87
2023-04-08T22:13:29.932Z,20.17
2023-04-08T22:18:51.853Z,18.20
2023-04-08T22:24:13.578Z,18.70
2023-04-08T22:29:35.350Z,19.93
2023-04-08T22:34:57.042Z,20.53
2023-04-08T22:40:18.556Z,20.33
2023-04-08T22:45:40.435Z,20.43
2023-04-08T22:51:02.196Z,20.33
2023-04-08T22:56:24.092Z,20.83
2023-04-08T23:01:45.787Z,20.40
2023-04-08T23:07:06.985Z,20.40
2023-04-08T23:12:28.367Z,20.80
2023-04-08T23:17:49.804Z,21.03
2023-04-08T23:23:11.345Z,20.73
2023-04-08T23:28:32.428Z,19.57
2023-04-08T23:33:54.042Z,19.30
2023-04-08T23:39:15.796Z,19.90
2023-04-08T23:44:37.323Z,20.43
2023-04-08T23:49:58.865Z,20.73
2023-04-08T23:55:20.246Z,20.23
